Scottsburg, IN

8:44 AM EST on December 20, 2014 (GMT -0500)
WR9G - NW Scott County | Change Station
CLOSE
Current Station
Personal Weather Station
Location: Austin, IN
Elevation: 552 ft
Nearby Weather Stations
Active Advisory: Special Statement

Elev 552 ft 38.74 °N, 85.83 °W | Updated 3 seconds ago

Snow
Snow
29.0 °F
Feels Like 29 °F
N
0.0
Wind Variable Wind from NE
Gusts 3.0 mph

Today
High -- | Low -- °F
--% Chance of Precip.
Yesterday
High -- | Low -- °F
Precip. -- in
7:56 AM 5:24 PM
Waning Crescent, 3% visible
Pressure 30.32 in
Visibility 7.0 miles
Clouds Overcast 8000 ft
Windchill 29 °F
Dew Point 26 °F
Humidity 89%
Rainfall 0.00 in
Snow Depth Not available.
UV 0 out of 12
Pollen .10 out of 12
Air Quality Not available.
Flu Activity Not available.
METAR KLOU 201253Z 33004KT 7SM OVC080 M02/M04 A3031 RMK AO2 SLP268 T10171039

More Conditions Fewer Conditions

Pressure 30.32 in
Visibility 7.0 miles
Clouds Overcast 8000 ft
Windchill 29 °F
Dew Point 26 °F
Humidity 89%
Rainfall 0.00 in
Snow Depth Not available.
UV 0 out of 12
Pollen .10 out of 12
Air Quality Not available.
Flu Activity Not available.
METAR KLOU 201253Z 33004KT 7SM OVC080 M02/M04 A3031 RMK AO2 SLP268 T10171039

More Conditions Fewer Conditions

10-Day Weather Forecast

Almanac

Astronomy

Dec. 20, 2014 Rise Set
Actual Time
Civil Twilight
Nautical Twilight
Astronomical Twilight
Moon
Length of Visible Light
Length of Day
Tomorrow will be .
, % of the Moon is Illuminated

Today's Extremes

State Highs State Lows

Community

WunderPhotos

Upload Photos

1,779,171 photos uploaded!

WunderBlogs® & News

Nearby

Air Quality

  Air Quality AQ Index Pollutant
Not available.

Snow Depth

Station Depth Elevation

Earthquake Activity

City Distance Mag. Time & Date
Minimum magnitude displayed is 2.5.

Coastal Water Temperatures

Place Temperature

Nearby Weather Stations